SCX109 KMSP-KLAS
Flight info
| Callsign | SCX109 |
|---|---|
| Flight time | N/A |
| Altitude | 34000 |
| Route | SCHEP1 RXANN TEYOU LLUKY BFF/N0444F360 EKR J100 SAKES GGAPP CHOWW4 |
| Aircraft | B738/M-SDE2E3FGHIRWXY/LB1 |
Departure
| Time | 2026-05-06 21:56 |
|---|---|
| Airport | Minneapolis–Saint Paul International Airport / Wold–Chamberlain Field (KMSP) |
Arrival
| Time | N/A |
|---|---|
| Airport | Harry Reid International Airport (KLAS) |
| Time | Latitude | Longitude | Altitude | Speed | Heading |
|---|---|---|---|---|---|
| 2026-05-06 21:31 | 44.88511 | -93.21374 | 838 ft | 0 kts | 63° |
| 2026-05-06 21:44 | 44.88511 | -93.21376 | 838 ft | 2 kts | 63° |
| 2026-05-06 21:44 | 44.88498 | -93.21407 | 837 ft | 4 kts | 52° |
| 2026-05-06 21:44 | 44.88479 | -93.21434 | 837 ft | 4 kts | 31° |
| 2026-05-06 21:44 | 44.88458 | -93.21443 | 833 ft | 4 kts | 330° |
| 2026-05-06 21:45 | 44.88447 | -93.21419 | 827 ft | 4 kts | 293° |
| 2026-05-06 21:45 | 44.88436 | -93.21384 | 830 ft | 4 kts | 293° |
| 2026-05-06 21:45 | 44.88429 | -93.21362 | 830 ft | 0 kts | 293° |
| 2026-05-06 21:48 | 44.88431 | -93.21369 | 832 ft | 2 kts | 293° |
| 2026-05-06 21:48 | 44.88438 | -93.21390 | 827 ft | 3 kts | 293° |
| 2026-05-06 21:48 | 44.88448 | -93.21422 | 827 ft | 4 kts | 294° |
| 2026-05-06 21:48 | 44.88462 | -93.21464 | 831 ft | 5 kts | 298° |
| 2026-05-06 21:49 | 44.88479 | -93.21504 | 835 ft | 5 kts | 301° |
| 2026-05-06 21:49 | 44.88494 | -93.21553 | 838 ft | 6 kts | 285° |
| 2026-05-06 21:49 | 44.88498 | -93.21612 | 840 ft | 6 kts | 270° |
| 2026-05-06 21:49 | 44.88490 | -93.21677 | 837 ft | 7 kts | 248° |
| 2026-05-06 21:50 | 44.88457 | -93.21736 | 833 ft | 8 kts | 227° |
| 2026-05-06 21:50 | 44.88413 | -93.21800 | 838 ft | 10 kts | 225° |
| 2026-05-06 21:50 | 44.88361 | -93.21873 | 836 ft | 11 kts | 223° |
| 2026-05-06 21:50 | 44.88293 | -93.21932 | 835 ft | 12 kts | 182° |
| 2026-05-06 21:51 | 44.88231 | -93.21847 | 834 ft | 14 kts | 121° |
| 2026-05-06 21:51 | 44.88174 | -93.21716 | 830 ft | 17 kts | 122° |
| 2026-05-06 21:51 | 44.88107 | -93.21562 | 832 ft | 20 kts | 122° |
| 2026-05-06 21:51 | 44.88032 | -93.21387 | 834 ft | 22 kts | 121° |
| 2026-05-06 21:52 | 44.87947 | -93.21194 | 831 ft | 24 kts | 121° |
| 2026-05-06 21:52 | 44.87857 | -93.20985 | 831 ft | 26 kts | 121° |
| 2026-05-06 21:52 | 44.87758 | -93.20756 | 825 ft | 26 kts | 121° |
| 2026-05-06 21:52 | 44.87673 | -93.20561 | 823 ft | 24 kts | 121° |
| 2026-05-06 21:53 | 44.87582 | -93.20352 | 822 ft | 24 kts | 121° |
| 2026-05-06 21:53 | 44.87505 | -93.20176 | 823 ft | 18 kts | 122° |
| 2026-05-06 21:53 | 44.87463 | -93.20088 | 824 ft | 7 kts | 136° |
| 2026-05-06 21:53 | 44.87447 | -93.20079 | 822 ft | 0 kts | 168° |
| 2026-05-06 21:54 | 44.87443 | -93.20078 | 823 ft | 1 kts | 174° |
| 2026-05-06 21:54 | 44.87428 | -93.20082 | 824 ft | 3 kts | 197° |
| 2026-05-06 21:54 | 44.87405 | -93.20099 | 823 ft | 5 kts | 209° |
| 2026-05-06 21:54 | 44.87372 | -93.20130 | 824 ft | 7 kts | 229° |
| 2026-05-06 21:55 | 44.87380 | -93.20188 | 823 ft | 0 kts | 298° |
| 2026-05-06 21:55 | 44.87383 | -93.20195 | 823 ft | 12 kts | 299° |
| 2026-05-06 21:55 | 44.87560 | -93.20603 | 824 ft | 84 kts | 301° |
| 2026-05-06 21:55 | 44.87973 | -93.21558 | 832 ft | 142 kts | 301° |
| 2026-05-06 21:56 | 44.88599 | -93.22889 | 1031 ft | 177 kts | 303° |
| 2026-05-06 21:56 | 44.89204 | -93.24410 | 1923 ft | 175 kts | 287° |
| 2026-05-06 21:56 | 44.89223 | -93.26020 | 3016 ft | 164 kts | 257° |
| 2026-05-06 21:56 | 44.88805 | -93.27549 | 3730 ft | 172 kts | 250° |
| 2026-05-06 21:57 | 44.88240 | -93.29097 | 4345 ft | 185 kts | 243° |
| 2026-05-06 21:57 | 44.87554 | -93.30640 | 5075 ft | 181 kts | 240° |
| 2026-05-06 21:57 | 44.86863 | -93.32062 | 5980 ft | 173 kts | 239° |
| 2026-05-06 21:57 | 44.86134 | -93.33409 | 6733 ft | 175 kts | 233° |
| 2026-05-06 21:58 | 44.85324 | -93.34724 | 7303 ft | 181 kts | 241° |
| 2026-05-06 21:58 | 44.84468 | -93.36146 | 7501 ft | 205 kts | 230° |
| 2026-05-06 21:58 | 44.83425 | -93.37658 | 7679 ft | 225 kts | 232° |
| 2026-05-06 21:58 | 44.82304 | -93.39364 | 7840 ft | 248 kts | 232° |
| 2026-05-06 21:59 | 44.81091 | -93.41242 | 8189 ft | 266 kts | 232° |
| 2026-05-06 21:59 | 44.79913 | -93.43258 | 8934 ft | 268 kts | 237° |
| 2026-05-06 21:59 | 44.78794 | -93.45384 | 9724 ft | 271 kts | 238° |
| 2026-05-06 21:59 | 44.77663 | -93.47550 | 10358 ft | 280 kts | 238° |
| 2026-05-06 22:00 | 44.76454 | -93.49852 | 10542 ft | 304 kts | 238° |
| 2026-05-06 22:00 | 44.75161 | -93.52282 | 10802 ft | 322 kts | 237° |
| 2026-05-06 22:00 | 44.73786 | -93.54835 | 11400 ft | 330 kts | 237° |
| 2026-05-06 22:00 | 44.72392 | -93.57408 | 12126 ft | 333 kts | 237° |
| 2026-05-06 22:01 | 44.70976 | -93.60015 | 12874 ft | 336 kts | 237° |
| 2026-05-06 22:01 | 44.69554 | -93.62650 | 13574 ft | 340 kts | 238° |
| 2026-05-06 22:01 | 44.68145 | -93.65347 | 14235 ft | 344 kts | 239° |
| 2026-05-06 22:01 | 44.66737 | -93.68074 | 14891 ft | 346 kts | 239° |
| 2026-05-06 22:02 | 44.65318 | -93.70820 | 15546 ft | 349 kts | 239° |
| 2026-05-06 22:02 | 44.63884 | -93.73590 | 16193 ft | 352 kts | 239° |
| 2026-05-06 22:02 | 44.62436 | -93.76378 | 16834 ft | 355 kts | 239° |
| 2026-05-06 22:02 | 44.60968 | -93.79198 | 17464 ft | 359 kts | 239° |
| 2026-05-06 22:03 | 44.59486 | -93.82040 | 18065 ft | 362 kts | 239° |
| 2026-05-06 22:03 | 44.57991 | -93.84902 | 18664 ft | 365 kts | 239° |
| 2026-05-06 22:03 | 44.56486 | -93.87782 | 19187 ft | 368 kts | 239° |
| 2026-05-06 22:03 | 44.54985 | -93.90650 | 19715 ft | 371 kts | 239° |
| 2026-05-06 22:04 | 44.53440 | -93.93600 | 20250 ft | 373 kts | 239° |
| 2026-05-06 22:04 | 44.51911 | -93.96518 | 20776 ft | 376 kts | 239° |
| 2026-05-06 22:04 | 44.50358 | -93.99479 | 21288 ft | 378 kts | 239° |
| 2026-05-06 22:04 | 44.48796 | -94.02455 | 21792 ft | 381 kts | 239° |
| 2026-05-06 22:05 | 44.47217 | -94.05458 | 22292 ft | 384 kts | 239° |
| 2026-05-06 22:05 | 44.45624 | -94.08487 | 22791 ft | 387 kts | 239° |
| 2026-05-06 22:05 | 44.44020 | -94.11534 | 23264 ft | 390 kts | 239° |
| 2026-05-06 22:05 | 44.42401 | -94.14603 | 23729 ft | 393 kts | 239° |
| 2026-05-06 22:06 | 44.40770 | -94.17689 | 24132 ft | 395 kts | 239° |
| 2026-05-06 22:06 | 44.39154 | -94.20743 | 24553 ft | 395 kts | 239° |
| 2026-05-06 22:06 | 44.37516 | -94.23833 | 24996 ft | 396 kts | 238° |
| 2026-05-06 22:06 | 44.35869 | -94.26940 | 25410 ft | 398 kts | 238° |
| 2026-05-06 22:07 | 44.34221 | -94.30046 | 25795 ft | 399 kts | 238° |
| 2026-05-06 22:07 | 44.32564 | -94.33165 | 26182 ft | 400 kts | 238° |
| 2026-05-06 22:07 | 44.30901 | -94.36294 | 26589 ft | 401 kts | 238° |
| 2026-05-06 22:07 | 44.29235 | -94.39425 | 26998 ft | 403 kts | 238° |
| 2026-05-06 22:08 | 44.27561 | -94.42570 | 27348 ft | 405 kts | 238° |
| 2026-05-06 22:08 | 44.25873 | -94.45734 | 27713 ft | 406 kts | 238° |
| 2026-05-06 22:08 | 44.24186 | -94.48893 | 28059 ft | 407 kts | 238° |
| 2026-05-06 22:08 | 44.22486 | -94.52072 | 28408 ft | 409 kts | 238° |
| 2026-05-06 22:09 | 44.20779 | -94.55259 | 28739 ft | 410 kts | 238° |
| 2026-05-06 22:09 | 44.19092 | -94.58409 | 29053 ft | 412 kts | 237° |
| 2026-05-06 22:09 | 44.17375 | -94.61609 | 29398 ft | 412 kts | 237° |
| 2026-05-06 22:09 | 44.15635 | -94.64852 | 29722 ft | 414 kts | 237° |
| 2026-05-06 22:10 | 44.13907 | -94.68069 | 30008 ft | 416 kts | 237° |
| 2026-05-06 22:10 | 44.12195 | -94.71252 | 30282 ft | 417 kts | 237° |
| 2026-05-06 22:10 | 44.10459 | -94.74474 | 30628 ft | 415 kts | 237° |
| 2026-05-06 22:10 | 44.08722 | -94.77696 | 30941 ft | 414 kts | 237° |
| 2026-05-06 22:11 | 44.06993 | -94.80900 | 31186 ft | 415 kts | 237° |
| 2026-05-06 22:11 | 44.05256 | -94.84117 | 31431 ft | 416 kts | 237° |
| 2026-05-06 22:11 | 44.03517 | -94.87336 | 31731 ft | 416 kts | 237° |
| 2026-05-06 22:11 | 44.01781 | -94.90543 | 32012 ft | 415 kts | 237° |
| 2026-05-06 22:12 | 44.00039 | -94.93756 | 32265 ft | 416 kts | 237° |
| 2026-05-06 22:12 | 43.98315 | -94.96983 | 32480 ft | 416 kts | 237° |
| 2026-05-06 22:12 | 43.96612 | -95.00249 | 32672 ft | 418 kts | 238° |
| 2026-05-06 22:12 | 43.94919 | -95.03526 | 32933 ft | 418 kts | 238° |
| 2026-05-06 22:13 | 43.93246 | -95.06763 | 33226 ft | 417 kts | 238° |
| 2026-05-06 22:13 | 43.91555 | -95.10030 | 33479 ft | 417 kts | 238° |
| 2026-05-06 22:13 | 43.89869 | -95.13278 | 33828 ft | 414 kts | 238° |
| 2026-05-06 22:13 | 43.88185 | -95.16510 | 34160 ft | 412 kts | 237° |
| 2026-05-06 22:14 | 43.86503 | -95.19734 | 34309 ft | 413 kts | 237° |
| 2026-05-06 22:14 | 43.84810 | -95.22975 | 34452 ft | 415 kts | 237° |
| 2026-05-06 22:14 | 43.83116 | -95.26214 | 34660 ft | 414 kts | 237° |
| 2026-05-06 22:14 | 43.81424 | -95.29442 | 34889 ft | 413 kts | 237° |
| 2026-05-06 22:15 | 43.79736 | -95.32658 | 35059 ft | 413 kts | 237° |
| 2026-05-06 22:15 | 43.78042 | -95.35885 | 35170 ft | 416 kts | 237° |
| 2026-05-06 22:15 | 43.74644 | -95.42345 | 35393 ft | 419 kts | 237° |
| 2026-05-06 22:16 | 43.72927 | -95.45604 | 35616 ft | 417 kts | 237° |
| 2026-05-06 22:16 | 43.71215 | -95.48847 | 35819 ft | 417 kts | 237° |
| 2026-05-06 22:16 | 43.69510 | -95.52075 | 35936 ft | 417 kts | 237° |
| 2026-05-06 22:16 | 43.67804 | -95.55300 | 36032 ft | 412 kts | 237° |
| 2026-05-06 22:17 | 43.64424 | -95.61681 | 36057 ft | 412 kts | 237° |
| 2026-05-06 22:17 | 43.61054 | -95.68036 | 36110 ft | 414 kts | 237° |
| 2026-05-06 22:18 | 43.57625 | -95.74490 | 36097 ft | 417 kts | 237° |
| 2026-05-06 22:18 | 43.54185 | -95.80945 | 36104 ft | 419 kts | 237° |
| 2026-05-06 22:19 | 43.50716 | -95.87432 | 36090 ft | 421 kts | 237° |
| 2026-05-06 22:19 | 43.47239 | -95.93925 | 36058 ft | 421 kts | 237° |